Crystal River, Florida
Current Conditions -  °F | °C
As of 9:15 AM on Monday 24 Nov 2014 (Local Time) from KCGC Reporting Station
Overcast Overcast  
Wind Chill: 77°   Ceiling: 900
Heat Index: 78°   Visibility: 10mi
Dew Point: 72°   Wind: 7mph
Humidity: 83%   Direction: 180°S
Pressure: 29.96"   Gusts: NA
Location:  28.9°N, 82.6°W
Report Text: KCGC 241415Z AUTO 18006KT 10SM OVC009 25/22 A2996 RMK AO2 LTG DSNT NW
Loading
Personal Weather Stations






























Interactive Weather Map New forecast layout! Learn more

10-Day Weather Forecast

Advertisements
Track Severe Weather on mobile